sensor_id;sensor_type;location;lat;lon;timestamp;pressure;altitude;pressure_sealevel;temperature;humidity
78016;BME280;67223;51.102;5.882;2023-07-16T00:00:50;100811.75;;;22.46;64.86
78016;BME280;67223;51.102;5.882;2023-07-16T00:03:15;100814.75;;;22.23;66.16
78016;BME280;67223;51.102;5.882;2023-07-16T00:05:41;100814.44;;;22.93;64.15
78016;BME280;67223;51.102;5.882;2023-07-16T00:08:06;100824.72;;;21.81;66.19
78016;BME280;67223;51.102;5.882;2023-07-16T00:10:35;100816.91;;;21.08;69.47
78016;BME280;67223;51.102;5.882;2023-07-16T00:13:02;100820.50;;;19.70;72.81
78016;BME280;67223;51.102;5.882;2023-07-16T00:15:28;100828.50;;;19.26;75.34
78016;BME280;67223;51.102;5.882;2023-07-16T00:17:53;100819.84;;;19.08;77.51
78016;BME280;67223;51.102;5.882;2023-07-16T00:20:20;100818.53;;;18.73;78.44
78016;BME280;67223;51.102;5.882;2023-07-16T00:22:46;100816.75;;;19.11;78.01
78016;BME280;67223;51.102;5.882;2023-07-16T00:25:11;100814.94;;;19.03;78.06
78016;BME280;67223;51.102;5.882;2023-07-16T00:27:36;100813.25;;;19.25;77.87
78016;BME280;67223;51.102;5.882;2023-07-16T00:30:02;100809.72;;;19.24;76.94
78016;BME280;67223;51.102;5.882;2023-07-16T00:32:28;100806.38;;;19.22;77.71
78016;BME280;67223;51.102;5.882;2023-07-16T00:34:53;100806.03;;;18.95;77.73
78016;BME280;67223;51.102;5.882;2023-07-16T00:37:19;100810.94;;;19.45;76.97
78016;BME280;67223;51.102;5.882;2023-07-16T00:39:44;100812.59;;;20.12;76.40
78016;BME280;67223;51.102;5.882;2023-07-16T00:42:09;100812.66;;;19.15;76.74
78016;BME280;67223;51.102;5.882;2023-07-16T00:44:35;100811.16;;;18.59;76.89
78016;BME280;67223;51.102;5.882;2023-07-16T00:47:00;100816.09;;;18.86;76.53
78016;BME280;67223;51.102;5.882;2023-07-16T00:49:27;100813.03;;;18.58;77.18
78016;BME280;67223;51.102;5.882;2023-07-16T00:51:54;100808.00;;;18.47;77.78
78016;BME280;67223;51.102;5.882;2023-07-16T00:54:20;100802.31;;;18.96;76.29
78016;BME280;67223;51.102;5.882;2023-07-16T00:56:45;100805.81;;;18.81;76.35
78016;BME280;67223;51.102;5.882;2023-07-16T00:59:11;100810.00;;;18.84;75.75
78016;BME280;67223;51.102;5.882;2023-07-16T01:01:38;100811.03;;;19.28;75.74
78016;BME280;67223;51.102;5.882;2023-07-16T01:04:04;100821.81;;;18.60;75.37
78016;BME280;67223;51.102;5.882;2023-07-16T01:06:49;100822.41;;;19.01;75.01
78016;BME280;67223;51.102;5.882;2023-07-16T01:09:18;100819.91;;;18.69;75.30
78016;BME280;67223;51.102;5.882;2023-07-16T01:11:44;100818.78;;;18.55;75.28
78016;BME280;67223;51.102;5.882;2023-07-16T01:14:10;100816.19;;;19.61;75.39
78016;BME280;67223;51.102;5.882;2023-07-16T01:16:37;100822.09;;;19.19;74.23
78016;BME280;67223;51.102;5.882;2023-07-16T01:19:03;100824.75;;;18.81;74.76
78016;BME280;67223;51.102;5.882;2023-07-16T01:21:47;100818.41;;;18.66;76.19
78016;BME280;67223;51.102;5.882;2023-07-16T01:29:29;100827.28;;;17.97;78.28
78016;BME280;67223;51.102;5.882;2023-07-16T01:31:56;100824.25;;;18.39;78.43
78016;BME280;67223;51.102;5.882;2023-07-16T01:34:24;100822.16;;;18.10;77.53
78016;BME280;67223;51.102;5.882;2023-07-16T01:36:52;100818.97;;;17.98;78.07
78016;BME280;67223;51.102;5.882;2023-07-16T01:39:18;100825.13;;;17.68;78.77
78016;BME280;67223;51.102;5.882;2023-07-16T01:41:43;100830.31;;;17.53;79.37
78016;BME280;67223;51.102;5.882;2023-07-16T01:44:09;100837.09;;;17.57;79.49
78016;BME280;67223;51.102;5.882;2023-07-16T01:46:34;100845.19;;;17.82;80.09
78016;BME280;67223;51.102;5.882;2023-07-16T01:49:00;100842.59;;;18.04;79.82
78016;BME280;67223;51.102;5.882;2023-07-16T01:51:25;100832.13;;;18.18;79.42
78016;BME280;67223;51.102;5.882;2023-07-16T01:53:50;100833.09;;;18.25;79.09
78016;BME280;67223;51.102;5.882;2023-07-16T01:56:16;100842.84;;;18.42;79.23
78016;BME280;67223;51.102;5.882;2023-07-16T01:58:42;100833.56;;;18.28;79.00
78016;BME280;67223;51.102;5.882;2023-07-16T02:01:07;100844.00;;;18.47;77.52
78016;BME280;67223;51.102;5.882;2023-07-16T02:03:32;100849.31;;;18.33;76.98
78016;BME280;67223;51.102;5.882;2023-07-16T02:05:58;100839.28;;;18.80;77.23
78016;BME280;67223;51.102;5.882;2023-07-16T02:08:23;100833.00;;;19.11;76.81
78016;BME280;67223;51.102;5.882;2023-07-16T02:10:49;100844.97;;;19.16;75.55
78016;BME280;67223;51.102;5.882;2023-07-16T02:13:15;100845.94;;;19.01;75.94
78016;BME280;67223;51.102;5.882;2023-07-16T02:15:40;100852.81;;;20.09;73.40
78016;BME280;67223;51.102;5.882;2023-07-16T02:18:06;100851.88;;;19.19;74.27
78016;BME280;67223;51.102;5.882;2023-07-16T02:20:31;100865.78;;;19.16;73.00
78016;BME280;67223;51.102;5.882;2023-07-16T02:22:57;100851.97;;;19.56;72.30
78016;BME280;67223;51.102;5.882;2023-07-16T02:25:22;100855.69;;;19.55;71.28
78016;BME280;67223;51.102;5.882;2023-07-16T02:27:48;100866.94;;;20.19;70.05
78016;BME280;67223;51.102;5.882;2023-07-16T02:30:15;100873.38;;;22.25;65.99
78016;BME280;67223;51.102;5.882;2023-07-16T02:32:40;100865.72;;;20.66;66.44
78016;BME280;67223;51.102;5.882;2023-07-16T02:35:07;100873.47;;;21.19;63.60
78016;BME280;67223;51.102;5.882;2023-07-16T02:37:32;100876.06;;;21.48;63.00
78016;BME280;67223;51.102;5.882;2023-07-16T02:39:58;100870.38;;;21.92;63.00
78016;BME280;67223;51.102;5.882;2023-07-16T02:42:24;100879.09;;;21.81;63.88
78016;BME280;67223;51.102;5.882;2023-07-16T02:44:49;100879.03;;;21.54;64.03
78016;BME280;67223;51.102;5.882;2023-07-16T02:47:15;100874.97;;;22.13;62.92
78016;BME280;67223;51.102;5.882;2023-07-16T02:49:40;100874.41;;;19.65;64.44
78016;BME280;67223;51.102;5.882;2023-07-16T02:52:06;100872.47;;;21.41;65.69
78016;BME280;67223;51.102;5.882;2023-07-16T02:54:32;100879.84;;;21.26;64.98
78016;BME280;67223;51.102;5.882;2023-07-16T02:56:57;100876.88;;;21.07;65.88
78016;BME280;67223;51.102;5.882;2023-07-16T02:59:23;100888.72;;;20.70;66.23
78016;BME280;67223;51.102;5.882;2023-07-16T03:01:48;100881.41;;;19.59;66.01
78016;BME280;67223;51.102;5.882;2023-07-16T03:04:14;100885.63;;;19.62;67.64
78016;BME280;67223;51.102;5.882;2023-07-16T03:06:39;100884.56;;;19.40;68.55
78016;BME280;67223;51.102;5.882;2023-07-16T03:09:05;100889.84;;;20.75;67.24
78016;BME280;67223;51.102;5.882;2023-07-16T03:11:30;100893.59;;;19.32;65.88
78016;BME280;67223;51.102;5.882;2023-07-16T03:13:56;100898.84;;;20.76;63.23
78016;BME280;67223;51.102;5.882;2023-07-16T03:16:21;100900.97;;;22.57;62.19
78016;BME280;67223;51.102;5.882;2023-07-16T03:18:46;100905.50;;;20.44;60.36
78016;BME280;67223;51.102;5.882;2023-07-16T03:21:12;100905.59;;;20.50;61.44
78016;BME280;67223;51.102;5.882;2023-07-16T03:23:38;100909.09;;;21.67;62.99
78016;BME280;67223;51.102;5.882;2023-07-16T03:26:03;100908.16;;;18.78;64.15
78016;BME280;67223;51.102;5.882;2023-07-16T03:28:29;100909.44;;;20.04;64.78
78016;BME280;67223;51.102;5.882;2023-07-16T03:30:54;100910.19;;;20.35;63.48
78016;BME280;67223;51.102;5.882;2023-07-16T03:33:20;100909.00;;;20.15;62.59
78016;BME280;67223;51.102;5.882;2023-07-16T03:35:47;100905.34;;;19.70;64.30
78016;BME280;67223;51.102;5.882;2023-07-16T03:38:13;100915.94;;;19.80;65.71
78016;BME280;67223;51.102;5.882;2023-07-16T03:40:38;100917.06;;;18.78;66.50
78016;BME280;67223;51.102;5.882;2023-07-16T03:43:04;100917.47;;;19.29;67.74
78016;BME280;67223;51.102;5.882;2023-07-16T03:45:30;100928.69;;;19.26;67.95
78016;BME280;67223;51.102;5.882;2023-07-16T03:47:55;100935.38;;;18.68;68.01
78016;BME280;67223;51.102;5.882;2023-07-16T03:50:20;100928.75;;;17.59;69.04
78016;BME280;67223;51.102;5.882;2023-07-16T03:52:46;100941.13;;;19.04;67.55
78016;BME280;67223;51.102;5.882;2023-07-16T03:55:12;100942.72;;;19.98;66.53
78016;BME280;67223;51.102;5.882;2023-07-16T03:57:37;100943.66;;;21.01;64.07
78016;BME280;67223;51.102;5.882;2023-07-16T04:00:04;100945.16;;;21.39;60.91
78016;BME280;67223;51.102;5.882;2023-07-16T04:05:09;100948.28;;;19.28;63.90
78016;BME280;67223;51.102;5.882;2023-07-16T04:07:35;100949.81;;;18.36;64.76
78016;BME280;67223;51.102;5.882;2023-07-16T04:10:00;100961.69;;;18.90;66.69
78016;BME280;67223;51.102;5.882;2023-07-16T04:12:26;100958.59;;;18.55;66.93
78016;BME280;67223;51.102;5.882;2023-07-16T04:14:57;100965.13;;;19.69;65.37
78016;BME280;67223;51.102;5.882;2023-07-16T04:17:23;100967.47;;;18.87;63.60
78016;BME280;67223;51.102;5.882;2023-07-16T04:19:48;100961.16;;;19.80;64.78
78016;BME280;67223;51.102;5.882;2023-07-16T04:22:14;100971.38;;;18.77;64.57
78016;BME280;67223;51.102;5.882;2023-07-16T04:24:39;100968.34;;;19.11;65.91
78016;BME280;67223;51.102;5.882;2023-07-16T04:27:05;100969.22;;;19.88;65.31
78016;BME280;67223;51.102;5.882;2023-07-16T04:29:30;100979.59;;;20.07;63.42
78016;BME280;67223;51.102;5.882;2023-07-16T04:31:56;100974.97;;;19.39;64.66
78016;BME280;67223;51.102;5.882;2023-07-16T04:34:21;100982.41;;;18.59;64.78
78016;BME280;67223;51.102;5.882;2023-07-16T04:36:47;100981.56;;;20.50;65.49
78016;BME280;67223;51.102;5.882;2023-07-16T04:39:12;100983.38;;;18.82;65.41
78016;BME280;67223;51.102;5.882;2023-07-16T04:41:38;100988.16;;;18.48;64.39
78016;BME280;67223;51.102;5.882;2023-07-16T04:44:04;100995.56;;;20.39;64.61
78016;BME280;67223;51.102;5.882;2023-07-16T04:46:30;100997.97;;;19.04;63.16
78016;BME280;67223;51.102;5.882;2023-07-16T04:48:55;100997.13;;;19.73;63.82
78016;BME280;67223;51.102;5.882;2023-07-16T04:51:21;101003.16;;;20.44;61.74
78016;BME280;67223;51.102;5.882;2023-07-16T04:53:46;101010.28;;;19.54;62.36
78016;BME280;67223;51.102;5.882;2023-07-16T04:56:12;101008.38;;;19.23;63.07
78016;BME280;67223;51.102;5.882;2023-07-16T04:58:38;101009.72;;;20.49;63.06
78016;BME280;67223;51.102;5.882;2023-07-16T05:01:03;101010.22;;;18.92;63.38
78016;BME280;67223;51.102;5.882;2023-07-16T05:03:29;101016.63;;;20.37;63.26
78016;BME280;67223;51.102;5.882;2023-07-16T05:05:54;101015.53;;;20.24;62.83
78016;BME280;67223;51.102;5.882;2023-07-16T05:08:20;101020.78;;;20.25;59.86
78016;BME280;67223;51.102;5.882;2023-07-16T05:10:45;101030.53;;;19.66;61.00
78016;BME280;67223;51.102;5.882;2023-07-16T05:13:11;101030.59;;;20.63;61.40
78016;BME280;67223;51.102;5.882;2023-07-16T05:15:37;101029.53;;;21.53;58.34
78016;BME280;67223;51.102;5.882;2023-07-16T05:18:03;101029.94;;;20.24;59.39
78016;BME280;67223;51.102;5.882;2023-07-16T05:20:28;101036.66;;;20.28;60.09
78016;BME280;67223;51.102;5.882;2023-07-16T05:22:54;101043.16;;;20.65;59.65
78016;BME280;67223;51.102;5.882;2023-07-16T05:25:19;101031.56;;;21.00;59.58
78016;BME280;67223;51.102;5.882;2023-07-16T05:27:45;101039.59;;;21.37;58.54
78016;BME280;67223;51.102;5.882;2023-07-16T05:30:10;101041.19;;;21.02;58.52
78016;BME280;67223;51.102;5.882;2023-07-16T05:32:36;101046.56;;;21.97;57.15
78016;BME280;67223;51.102;5.882;2023-07-16T05:35:01;101035.97;;;20.86;57.04
78016;BME280;67223;51.102;5.882;2023-07-16T05:37:27;101041.00;;;20.75;57.31
78016;BME280;67223;51.102;5.882;2023-07-16T05:39:52;101045.41;;;19.93;55.75
78016;BME280;67223;51.102;5.882;2023-07-16T05:42:18;101046.47;;;20.37;59.52
78016;BME280;67223;51.102;5.882;2023-07-16T05:44:43;101052.34;;;21.52;54.64
78016;BME280;67223;51.102;5.882;2023-07-16T05:47:13;101051.03;;;20.89;55.42
78016;BME280;67223;51.102;5.882;2023-07-16T05:49:39;101046.97;;;21.94;54.38
78016;BME280;67223;51.102;5.882;2023-07-16T05:52:04;101054.19;;;20.78;54.32
78016;BME280;67223;51.102;5.882;2023-07-16T05:54:30;101059.09;;;20.97;57.66
78016;BME280;67223;51.102;5.882;2023-07-16T05:56:57;101054.16;;;22.72;55.08
78016;BME280;67223;51.102;5.882;2023-07-16T05:59:22;101052.97;;;22.53;51.47
78016;BME280;67223;51.102;5.882;2023-07-16T06:01:48;101053.88;;;22.88;52.40
78016;BME280;67223;51.102;5.882;2023-07-16T06:04:13;101065.25;;;22.21;50.36
78016;BME280;67223;51.102;5.882;2023-07-16T06:06:38;101065.44;;;21.04;53.01
78016;BME280;67223;51.102;5.882;2023-07-16T06:09:04;101076.44;;;22.33;53.61
78016;BME280;67223;51.102;5.882;2023-07-16T06:11:29;101083.88;;;21.67;52.61
78016;BME280;67223;51.102;5.882;2023-07-16T06:13:55;101070.88;;;22.41;54.24
78016;BME280;67223;51.102;5.882;2023-07-16T06:16:20;101077.16;;;22.69;52.26
78016;BME280;67223;51.102;5.882;2023-07-16T06:18:46;101072.38;;;22.01;51.12
78016;BME280;67223;51.102;5.882;2023-07-16T06:21:12;101082.59;;;21.99;52.49
78016;BME280;67223;51.102;5.882;2023-07-16T06:23:38;101082.31;;;22.58;52.73
78016;BME280;67223;51.102;5.882;2023-07-16T06:26:03;101074.44;;;22.20;51.17
78016;BME280;67223;51.102;5.882;2023-07-16T06:28:28;101080.44;;;22.37;50.17
78016;BME280;67223;51.102;5.882;2023-07-16T06:30:54;101083.81;;;22.88;52.30
78016;BME280;67223;51.102;5.882;2023-07-16T06:33:19;101082.84;;;23.30;51.11
78016;BME280;67223;51.102;5.882;2023-07-16T06:35:46;101085.50;;;22.89;48.39
78016;BME280;67223;51.102;5.882;2023-07-16T06:38:15;101096.84;;;24.42;49.54
78016;BME280;67223;51.102;5.882;2023-07-16T06:40:47;101093.69;;;22.19;49.64
78016;BME280;67223;51.102;5.882;2023-07-16T06:43:16;101096.81;;;23.55;48.81
78016;BME280;67223;51.102;5.882;2023-07-16T06:45:42;101101.91;;;22.25;48.90
78016;BME280;67223;51.102;5.882;2023-07-16T06:48:08;101103.75;;;23.51;50.85
78016;BME280;67223;51.102;5.882;2023-07-16T06:50:33;101105.88;;;23.28;51.05
78016;BME280;67223;51.102;5.882;2023-07-16T06:52:58;101111.31;;;23.28;47.40
78016;BME280;67223;51.102;5.882;2023-07-16T06:55:24;101111.72;;;21.69;48.71
78016;BME280;67223;51.102;5.882;2023-07-16T06:57:49;101111.88;;;22.18;50.28
78016;BME280;67223;51.102;5.882;2023-07-16T07:00:15;101120.63;;;23.40;49.70
78016;BME280;67223;51.102;5.882;2023-07-16T07:02:40;101112.03;;;23.43;48.56
78016;BME280;67223;51.102;5.882;2023-07-16T07:05:09;101119.44;;;23.49;47.78
78016;BME280;67223;51.102;5.882;2023-07-16T07:07:35;101112.34;;;21.86;49.08
78016;BME280;67223;51.102;5.882;2023-07-16T07:10:00;101116.84;;;24.49;47.12
78016;BME280;67223;51.102;5.882;2023-07-16T07:12:26;101108.31;;;23.98;48.83
78016;BME280;67223;51.102;5.882;2023-07-16T07:14:51;101114.94;;;24.50;45.28
78016;BME280;67223;51.102;5.882;2023-07-16T07:17:17;101115.06;;;23.54;47.00
78016;BME280;67223;51.102;5.882;2023-07-16T07:19:43;101123.47;;;22.69;46.35
78016;BME280;67223;51.102;5.882;2023-07-16T07:22:08;101119.00;;;22.41;48.65
78016;BME280;67223;51.102;5.882;2023-07-16T07:24:33;101124.81;;;21.95;49.94
78016;BME280;67223;51.102;5.882;2023-07-16T07:26:59;101119.94;;;21.02;51.30
78016;BME280;67223;51.102;5.882;2023-07-16T07:29:24;101117.38;;;22.04;50.64
78016;BME280;67223;51.102;5.882;2023-07-16T07:31:50;101124.28;;;23.19;48.91
78016;BME280;67223;51.102;5.882;2023-07-16T07:34:15;101124.56;;;23.65;47.29
78016;BME280;67223;51.102;5.882;2023-07-16T07:36:41;101127.84;;;22.92;49.62
78016;BME280;67223;51.102;5.882;2023-07-16T07:39:07;101128.16;;;24.66;49.42
78016;BME280;67223;51.102;5.882;2023-07-16T07:41:33;101122.81;;;23.51;46.77
78016;BME280;67223;51.102;5.882;2023-07-16T07:43:58;101129.22;;;24.78;49.96
78016;BME280;67223;51.102;5.882;2023-07-16T07:46:23;101127.69;;;22.29;51.06
78016;BME280;67223;51.102;5.882;2023-07-16T07:48:49;101132.56;;;23.39;53.60
78016;BME280;67223;51.102;5.882;2023-07-16T07:51:14;101144.97;;;24.63;51.72
78016;BME280;67223;51.102;5.882;2023-07-16T07:53:40;101143.09;;;24.63;49.18
78016;BME280;67223;51.102;5.882;2023-07-16T07:56:05;101135.50;;;24.52;52.19
78016;BME280;67223;51.102;5.882;2023-07-16T07:58:30;101133.41;;;25.26;50.48
78016;BME280;67223;51.102;5.882;2023-07-16T08:00:56;101138.25;;;24.59;46.13
78016;BME280;67223;51.102;5.882;2023-07-16T08:03:21;101135.53;;;24.85;49.29
78016;BME280;67223;51.102;5.882;2023-07-16T08:05:50;101133.84;;;25.17;45.63
78016;BME280;67223;51.102;5.882;2023-07-16T08:08:15;101145.13;;;23.68;45.56
78016;BME280;67223;51.102;5.882;2023-07-16T08:10:42;101147.50;;;25.17;49.63
78016;BME280;67223;51.102;5.882;2023-07-16T08:13:08;101151.31;;;24.96;47.48
78016;BME280;67223;51.102;5.882;2023-07-16T08:15:33;101150.75;;;24.14;44.66
78016;BME280;67223;51.102;5.882;2023-07-16T08:17:59;101154.25;;;23.94;46.53
78016;BME280;67223;51.102;5.882;2023-07-16T08:20:26;101152.34;;;24.82;47.66
78016;BME280;67223;51.102;5.882;2023-07-16T08:22:51;101146.69;;;24.70;45.44
78016;BME280;67223;51.102;5.882;2023-07-16T08:25:17;101149.44;;;25.10;45.47
78016;BME280;67223;51.102;5.882;2023-07-16T08:27:42;101160.94;;;25.32;43.89
78016;BME280;67223;51.102;5.882;2023-07-16T08:30:08;101154.25;;;25.08;44.81
78016;BME280;67223;51.102;5.882;2023-07-16T08:32:33;101154.22;;;25.21;45.00
78016;BME280;67223;51.102;5.882;2023-07-16T08:34:59;101155.41;;;25.51;44.70
78016;BME280;67223;51.102;5.882;2023-07-16T08:37:24;101161.19;;;25.23;45.68
78016;BME280;67223;51.102;5.882;2023-07-16T08:39:53;101151.38;;;25.80;45.19
78016;BME280;67223;51.102;5.882;2023-07-16T08:42:21;101150.19;;;25.43;44.48
78016;BME280;67223;51.102;5.882;2023-07-16T08:44:48;101146.84;;;25.35;43.59
78016;BME280;67223;51.102;5.882;2023-07-16T08:47:15;101158.78;;;26.11;42.89
78016;BME280;67223;51.102;5.882;2023-07-16T08:49:41;101175.66;;;25.37;43.08
78016;BME280;67223;51.102;5.882;2023-07-16T08:52:09;101158.19;;;24.46;44.83
78016;BME280;67223;51.102;5.882;2023-07-16T08:54:34;101161.50;;;25.66;44.10
78016;BME280;67223;51.102;5.882;2023-07-16T08:57:00;101159.47;;;24.76;44.14
78016;BME280;67223;51.102;5.882;2023-07-16T08:59:26;101166.22;;;23.93;45.13
78016;BME280;67223;51.102;5.882;2023-07-16T09:01:52;101163.31;;;24.89;45.38
78016;BME280;67223;51.102;5.882;2023-07-16T09:04:17;101170.84;;;25.13;43.52
78016;BME280;67223;51.102;5.882;2023-07-16T09:06:43;101169.97;;;25.45;43.71
78016;BME280;67223;51.102;5.882;2023-07-16T09:09:19;101160.53;;;25.28;43.13
78016;BME280;67223;51.102;5.882;2023-07-16T09:11:48;101161.88;;;25.83;42.54
78016;BME280;67223;51.102;5.882;2023-07-16T09:14:21;101163.19;;;25.74;42.35
78016;BME280;67223;51.102;5.882;2023-07-16T09:16:53;101166.22;;;24.61;41.50
78016;BME280;67223;51.102;5.882;2023-07-16T09:19:18;101164.69;;;25.63;43.01
78016;BME280;67223;51.102;5.882;2023-07-16T09:21:50;101172.25;;;25.61;42.50
78016;BME280;67223;51.102;5.882;2023-07-16T09:24:17;101175.25;;;24.74;44.15
78016;BME280;67223;51.102;5.882;2023-07-16T09:29:15;101173.69;;;23.78;44.77
78016;BME280;67223;51.102;5.882;2023-07-16T09:31:57;101181.25;;;24.24;43.98
78016;BME280;67223;51.102;5.882;2023-07-16T09:34:23;101184.06;;;24.83;44.97
78016;BME280;67223;51.102;5.882;2023-07-16T09:36:49;101178.63;;;24.70;44.02
78016;BME280;67223;51.102;5.882;2023-07-16T09:39:18;101183.88;;;25.24;44.06
78016;BME280;67223;51.102;5.882;2023-07-16T09:41:48;101180.03;;;25.51;43.77
78016;BME280;67223;51.102;5.882;2023-07-16T09:44:14;101193.28;;;24.62;44.08
78016;BME280;67223;51.102;5.882;2023-07-16T09:46:40;101184.97;;;25.10;43.48
78016;BME280;67223;51.102;5.882;2023-07-16T09:49:07;101184.09;;;25.16;42.12
78016;BME280;67223;51.102;5.882;2023-07-16T09:51:37;101169.38;;;25.30;43.12
78016;BME280;67223;51.102;5.882;2023-07-16T09:54:03;101175.28;;;25.20;43.28
78016;BME280;67223;51.102;5.882;2023-07-16T09:56:44;101171.47;;;25.35;43.41
78016;BME280;67223;51.102;5.882;2023-07-16T09:59:16;101183.59;;;25.71;43.39
78016;BME280;67223;51.102;5.882;2023-07-16T10:01:42;101184.56;;;23.65;43.59
78016;BME280;67223;51.102;5.882;2023-07-16T10:04:18;101181.53;;;24.01;43.58
78016;BME280;67223;51.102;5.882;2023-07-16T10:06:58;101178.59;;;24.83;42.75
78016;BME280;67223;51.102;5.882;2023-07-16T10:09:38;101186.81;;;23.96;42.65
78016;BME280;67223;51.102;5.882;2023-07-16T10:14:46;101191.03;;;24.92;42.55
78016;BME280;67223;51.102;5.882;2023-07-16T10:17:15;101189.31;;;24.58;41.78
78016;BME280;67223;51.102;5.882;2023-07-16T10:20:00;101184.75;;;25.05;41.91
78016;BME280;67223;51.102;5.882;2023-07-16T10:22:36;101192.50;;;25.01;42.52
78016;BME280;67223;51.102;5.882;2023-07-16T10:25:06;101185.59;;;25.96;42.31
78016;BME280;67223;51.102;5.882;2023-07-16T10:27:33;101199.47;;;25.10;40.91
78016;BME280;67223;51.102;5.882;2023-07-16T10:30:00;101205.88;;;25.82;41.97
78016;BME280;67223;51.102;5.882;2023-07-16T10:32:28;101199.53;;;25.88;42.83
78016;BME280;67223;51.102;5.882;2023-07-16T10:34:54;101204.88;;;25.50;40.05
78016;BME280;67223;51.102;5.882;2023-07-16T10:37:19;101205.84;;;25.95;39.87
78016;BME280;67223;51.102;5.882;2023-07-16T10:39:49;101202.53;;;25.73;42.23
78016;BME280;67223;51.102;5.882;2023-07-16T10:42:19;101206.78;;;24.83;41.91
78016;BME280;67223;51.102;5.882;2023-07-16T10:44:45;101199.16;;;25.78;42.52
78016;BME280;67223;51.102;5.882;2023-07-16T10:47:19;101208.47;;;25.30;42.13
78016;BME280;67223;51.102;5.882;2023-07-16T10:49:47;101213.94;;;25.44;42.35
78016;BME280;67223;51.102;5.882;2023-07-16T10:52:13;101215.34;;;25.79;42.02
78016;BME280;67223;51.102;5.882;2023-07-16T10:54:40;101210.16;;;25.58;42.29
78016;BME280;67223;51.102;5.882;2023-07-16T10:57:05;101213.94;;;25.57;41.50
78016;BME280;67223;51.102;5.882;2023-07-16T10:59:31;101221.88;;;25.78;41.62
78016;BME280;67223;51.102;5.882;2023-07-16T11:01:58;101212.03;;;25.57;40.67
78016;BME280;67223;51.102;5.882;2023-07-16T11:04:23;101226.53;;;25.51;40.88
78016;BME280;67223;51.102;5.882;2023-07-16T11:06:52;101226.88;;;25.94;42.03
78016;BME280;67223;51.102;5.882;2023-07-16T11:09:17;101228.53;;;25.95;41.79
78016;BME280;67223;51.102;5.882;2023-07-16T11:11:43;101223.63;;;25.59;41.77
78016;BME280;67223;51.102;5.882;2023-07-16T11:14:08;101227.78;;;25.75;41.00
78016;BME280;67223;51.102;5.882;2023-07-16T11:16:37;101229.88;;;25.80;42.36
78016;BME280;67223;51.102;5.882;2023-07-16T11:19:07;101237.47;;;25.71;41.93
78016;BME280;67223;51.102;5.882;2023-07-16T11:21:36;101231.56;;;25.74;40.93
78016;BME280;67223;51.102;5.882;2023-07-16T11:24:14;101237.53;;;25.05;40.29
78016;BME280;67223;51.102;5.882;2023-07-16T11:26:52;101242.09;;;25.77;41.78
78016;BME280;67223;51.102;5.882;2023-07-16T11:29:17;101232.84;;;24.79;41.05
78016;BME280;67223;51.102;5.882;2023-07-16T11:31:43;101247.16;;;25.74;41.77
78016;BME280;67223;51.102;5.882;2023-07-16T11:34:15;101236.25;;;25.34;41.01
78016;BME280;67223;51.102;5.882;2023-07-16T11:36:41;101247.56;;;25.77;40.68
78016;BME280;67223;51.102;5.882;2023-07-16T11:39:06;101245.66;;;25.78;41.61
78016;BME280;67223;51.102;5.882;2023-07-16T11:41:32;101254.13;;;25.63;41.71
78016;BME280;67223;51.102;5.882;2023-07-16T11:44:00;101247.59;;;25.57;41.76
78016;BME280;67223;51.102;5.882;2023-07-16T11:46:32;101250.50;;;25.76;42.02
78016;BME280;67223;51.102;5.882;2023-07-16T11:48:59;101254.34;;;25.55;39.95
78016;BME280;67223;51.102;5.882;2023-07-16T11:51:24;101252.22;;;25.44;42.07
78016;BME280;67223;51.102;5.882;2023-07-16T11:53:50;101253.47;;;25.54;41.88
78016;BME280;67223;51.102;5.882;2023-07-16T11:56:15;101256.66;;;25.64;41.67
78016;BME280;67223;51.102;5.882;2023-07-16T11:58:41;101254.72;;;25.85;41.62
78016;BME280;67223;51.102;5.882;2023-07-16T12:01:06;101257.44;;;25.71;41.82
78016;BME280;67223;51.102;5.882;2023-07-16T12:03:32;101263.56;;;25.74;41.98
78016;BME280;67223;51.102;5.882;2023-07-16T12:05:57;101261.69;;;25.61;41.65
78016;BME280;67223;51.102;5.882;2023-07-16T12:08:23;101257.91;;;25.68;41.45
78016;BME280;67223;51.102;5.882;2023-07-16T12:10:48;101256.56;;;25.91;41.03
78016;BME280;67223;51.102;5.882;2023-07-16T12:13:13;101253.81;;;25.91;41.55
78016;BME280;67223;51.102;5.882;2023-07-16T12:15:39;101256.44;;;25.20;40.51
78016;BME280;67223;51.102;5.882;2023-07-16T12:18:04;101255.38;;;25.67;41.71
78016;BME280;67223;51.102;5.882;2023-07-16T12:20:30;101253.88;;;25.71;42.33
78016;BME280;67223;51.102;5.882;2023-07-16T12:22:55;101262.31;;;25.69;41.17
78016;BME280;67223;51.102;5.882;2023-07-16T12:25:21;101254.28;;;25.81;41.14
78016;BME280;67223;51.102;5.882;2023-07-16T12:27:46;101254.06;;;25.83;39.96
78016;BME280;67223;51.102;5.882;2023-07-16T12:30:12;101265.22;;;24.96;40.23
78016;BME280;67223;51.102;5.882;2023-07-16T12:32:37;101261.44;;;25.89;41.26
78016;BME280;67223;51.102;5.882;2023-07-16T12:35:03;101259.78;;;25.68;40.35
78016;BME280;67223;51.102;5.882;2023-07-16T12:37:30;101259.09;;;25.86;40.83
78016;BME280;67223;51.102;5.882;2023-07-16T12:39:55;101254.56;;;25.60;40.43
78016;BME280;67223;51.102;5.882;2023-07-16T12:42:21;101250.69;;;25.87;41.54
78016;BME280;67223;51.102;5.882;2023-07-16T12:44:46;101254.31;;;25.61;39.33
78016;BME280;67223;51.102;5.882;2023-07-16T12:47:11;101264.81;;;25.78;40.65
78016;BME280;67223;51.102;5.882;2023-07-16T12:49:37;101258.69;;;25.89;39.89
78016;BME280;67223;51.102;5.882;2023-07-16T12:52:03;101257.59;;;25.96;40.93
78016;BME280;67223;51.102;5.882;2023-07-16T12:54:28;101255.03;;;26.08;40.14
78016;BME280;67223;51.102;5.882;2023-07-16T12:56:54;101254.28;;;25.81;39.97
78016;BME280;67223;51.102;5.882;2023-07-16T12:59:20;101250.88;;;25.99;41.06